sensor_id;sensor_type;location;lat;lon;timestamp;P1;durP1;ratioP1;P2;durP2;ratioP2
17852;SDS011;9052;53.494;14.376;2023-07-29T00:00:39;6.13;;;4.70;;
17852;SDS011;9052;53.494;14.376;2023-07-29T00:03:07;11.07;;;5.90;;
17852;SDS011;9052;53.494;14.376;2023-07-29T00:05:34;10.00;;;6.37;;
17852;SDS011;9052;53.494;14.376;2023-07-29T00:08:01;6.87;;;5.43;;
17852;SDS011;9052;53.494;14.376;2023-07-29T00:10:30;26.53;;;6.13;;
17852;SDS011;9052;53.494;14.376;2023-07-29T00:12:57;12.23;;;6.73;;
17852;SDS011;9052;53.494;14.376;2023-07-29T00:15:24;6.40;;;5.33;;
17852;SDS011;9052;53.494;14.376;2023-07-29T00:17:51;9.90;;;5.20;;
17852;SDS011;9052;53.494;14.376;2023-07-29T00:20:18;5.23;;;4.73;;
17852;SDS011;9052;53.494;14.376;2023-07-29T00:22:45;6.93;;;5.07;;
17852;SDS011;9052;53.494;14.376;2023-07-29T00:25:14;5.37;;;5.00;;
17852;SDS011;9052;53.494;14.376;2023-07-29T00:27:43;4.93;;;4.50;;
17852;SDS011;9052;53.494;14.376;2023-07-29T00:30:10;5.60;;;5.00;;
17852;SDS011;9052;53.494;14.376;2023-07-29T00:32:38;4.73;;;4.33;;
17852;SDS011;9052;53.494;14.376;2023-07-29T00:35:05;5.37;;;4.30;;
17852;SDS011;9052;53.494;14.376;2023-07-29T00:37:33;10.33;;;5.30;;
17852;SDS011;9052;53.494;14.376;2023-07-29T00:39:59;5.60;;;5.00;;
17852;SDS011;9052;53.494;14.376;2023-07-29T00:42:26;5.97;;;5.40;;
17852;SDS011;9052;53.494;14.376;2023-07-29T00:44:54;7.37;;;5.33;;
17852;SDS011;9052;53.494;14.376;2023-07-29T00:47:21;6.83;;;4.90;;
17852;SDS011;9052;53.494;14.376;2023-07-29T00:49:48;8.23;;;4.60;;
17852;SDS011;9052;53.494;14.376;2023-07-29T00:52:17;10.77;;;5.37;;
17852;SDS011;9052;53.494;14.376;2023-07-29T00:54:44;8.13;;;5.13;;
17852;SDS011;9052;53.494;14.376;2023-07-29T00:57:10;6.43;;;5.50;;
17852;SDS011;9052;53.494;14.376;2023-07-29T00:59:38;8.40;;;6.30;;
17852;SDS011;9052;53.494;14.376;2023-07-29T01:02:07;6.80;;;5.73;;
17852;SDS011;9052;53.494;14.376;2023-07-29T01:04:33;11.67;;;5.60;;
17852;SDS011;9052;53.494;14.376;2023-07-29T01:07:02;5.20;;;4.60;;
17852;SDS011;9052;53.494;14.376;2023-07-29T01:09:36;6.27;;;4.50;;
17852;SDS011;9052;53.494;14.376;2023-07-29T01:12:08;5.80;;;5.30;;
17852;SDS011;9052;53.494;14.376;2023-07-29T01:14:41;9.00;;;5.97;;
17852;SDS011;9052;53.494;14.376;2023-07-29T01:17:15;14.13;;;5.47;;
17852;SDS011;9052;53.494;14.376;2023-07-29T01:20:01;7.70;;;3.90;;
17852;SDS011;9052;53.494;14.376;2023-07-29T01:22:31;6.43;;;4.70;;
17852;SDS011;9052;53.494;14.376;2023-07-29T01:24:59;6.90;;;6.30;;
17852;SDS011;9052;53.494;14.376;2023-07-29T01:27:27;5.83;;;4.80;;
17852;SDS011;9052;53.494;14.376;2023-07-29T01:29:54;6.13;;;5.63;;
17852;SDS011;9052;53.494;14.376;2023-07-29T01:32:37;7.10;;;5.27;;
17852;SDS011;9052;53.494;14.376;2023-07-29T01:35:10;5.30;;;4.37;;
17852;SDS011;9052;53.494;14.376;2023-07-29T01:37:41;5.60;;;5.20;;
17852;SDS011;9052;53.494;14.376;2023-07-29T01:40:12;6.00;;;4.80;;
17852;SDS011;9052;53.494;14.376;2023-07-29T01:42:39;4.53;;;4.20;;
17852;SDS011;9052;53.494;14.376;2023-07-29T01:45:06;10.43;;;5.07;;
17852;SDS011;9052;53.494;14.376;2023-07-29T01:47:33;10.53;;;5.60;;
17852;SDS011;9052;53.494;14.376;2023-07-29T01:50:00;8.70;;;4.93;;
17852;SDS011;9052;53.494;14.376;2023-07-29T01:52:28;6.00;;;5.00;;
17852;SDS011;9052;53.494;14.376;2023-07-29T01:54:55;5.23;;;4.73;;
17852;SDS011;9052;53.494;14.376;2023-07-29T01:57:23;8.00;;;5.67;;
17852;SDS011;9052;53.494;14.376;2023-07-29T01:59:50;12.13;;;7.53;;
17852;SDS011;9052;53.494;14.376;2023-07-29T02:02:17;9.10;;;7.13;;
17852;SDS011;9052;53.494;14.376;2023-07-29T02:04:44;12.37;;;7.27;;
17852;SDS011;9052;53.494;14.376;2023-07-29T02:07:16;15.37;;;7.60;;
17852;SDS011;9052;53.494;14.376;2023-07-29T02:09:43;8.50;;;7.30;;
17852;SDS011;9052;53.494;14.376;2023-07-29T02:12:10;7.70;;;7.00;;
17852;SDS011;9052;53.494;14.376;2023-07-29T02:14:38;9.60;;;7.90;;
17852;SDS011;9052;53.494;14.376;2023-07-29T02:17:05;12.43;;;6.03;;
17852;SDS011;9052;53.494;14.376;2023-07-29T02:19:32;11.43;;;9.17;;
17852;SDS011;9052;53.494;14.376;2023-07-29T02:21:59;9.83;;;7.43;;
17852;SDS011;9052;53.494;14.376;2023-07-29T02:24:26;8.20;;;7.20;;
17852;SDS011;9052;53.494;14.376;2023-07-29T02:26:53;14.07;;;8.97;;
17852;SDS011;9052;53.494;14.376;2023-07-29T02:29:20;11.93;;;8.70;;
17852;SDS011;9052;53.494;14.376;2023-07-29T02:31:49;11.53;;;7.97;;
17852;SDS011;9052;53.494;14.376;2023-07-29T02:34:16;11.47;;;8.33;;
17852;SDS011;9052;53.494;14.376;2023-07-29T02:36:43;18.33;;;9.60;;
17852;SDS011;9052;53.494;14.376;2023-07-29T02:39:10;13.60;;;9.77;;
17852;SDS011;9052;53.494;14.376;2023-07-29T02:41:37;9.73;;;8.73;;
17852;SDS011;9052;53.494;14.376;2023-07-29T02:44:04;11.60;;;8.37;;
17852;SDS011;9052;53.494;14.376;2023-07-29T02:46:31;11.03;;;8.00;;
17852;SDS011;9052;53.494;14.376;2023-07-29T02:49:01;15.00;;;9.13;;
17852;SDS011;9052;53.494;14.376;2023-07-29T02:51:28;16.40;;;11.57;;
17852;SDS011;9052;53.494;14.376;2023-07-29T02:53:55;15.93;;;10.23;;
17852;SDS011;9052;53.494;14.376;2023-07-29T02:56:22;23.23;;;12.57;;
17852;SDS011;9052;53.494;14.376;2023-07-29T02:58:49;19.60;;;11.60;;
17852;SDS011;9052;53.494;14.376;2023-07-29T03:01:17;17.60;;;12.97;;
17852;SDS011;9052;53.494;14.376;2023-07-29T03:03:44;16.77;;;12.07;;
17852;SDS011;9052;53.494;14.376;2023-07-29T03:06:13;15.50;;;11.33;;
17852;SDS011;9052;53.494;14.376;2023-07-29T03:08:40;15.97;;;10.90;;
17852;SDS011;9052;53.494;14.376;2023-07-29T03:11:08;11.40;;;9.70;;
17852;SDS011;9052;53.494;14.376;2023-07-29T03:13:36;19.87;;;12.00;;
17852;SDS011;9052;53.494;14.376;2023-07-29T03:16:06;17.53;;;12.90;;
17852;SDS011;9052;53.494;14.376;2023-07-29T03:18:33;22.03;;;12.63;;
17852;SDS011;9052;53.494;14.376;2023-07-29T03:21:00;30.90;;;15.70;;
17852;SDS011;9052;53.494;14.376;2023-07-29T03:23:29;21.13;;;14.17;;
17852;SDS011;9052;53.494;14.376;2023-07-29T03:25:56;22.27;;;13.83;;
17852;SDS011;9052;53.494;14.376;2023-07-29T03:28:23;21.90;;;15.60;;
17852;SDS011;9052;53.494;14.376;2023-07-29T03:30:51;23.93;;;14.27;;
17852;SDS011;9052;53.494;14.376;2023-07-29T03:33:18;20.20;;;14.27;;
17852;SDS011;9052;53.494;14.376;2023-07-29T03:35:45;21.10;;;15.17;;
17852;SDS011;9052;53.494;14.376;2023-07-29T03:38:12;25.13;;;17.13;;
17852;SDS011;9052;53.494;14.376;2023-07-29T03:40:41;21.70;;;16.23;;
17852;SDS011;9052;53.494;14.376;2023-07-29T03:43:08;29.17;;;17.63;;
17852;SDS011;9052;53.494;14.376;2023-07-29T03:45:35;42.00;;;17.60;;
17852;SDS011;9052;53.494;14.376;2023-07-29T03:48:03;24.03;;;17.20;;
17852;SDS011;9052;53.494;14.376;2023-07-29T03:50:30;22.00;;;16.63;;
17852;SDS011;9052;53.494;14.376;2023-07-29T03:52:59;24.27;;;15.43;;
17852;SDS011;9052;53.494;14.376;2023-07-29T03:55:26;24.97;;;16.73;;
17852;SDS011;9052;53.494;14.376;2023-07-29T03:57:56;37.67;;;15.63;;
17852;SDS011;9052;53.494;14.376;2023-07-29T04:00:23;19.77;;;15.73;;
17852;SDS011;9052;53.494;14.376;2023-07-29T04:02:49;22.60;;;15.23;;
17852;SDS011;9052;53.494;14.376;2023-07-29T04:05:16;22.50;;;16.60;;
17852;SDS011;9052;53.494;14.376;2023-07-29T04:07:43;24.50;;;16.57;;
17852;SDS011;9052;53.494;14.376;2023-07-29T04:10:11;29.53;;;15.37;;
17852;SDS011;9052;53.494;14.376;2023-07-29T04:12:38;17.70;;;14.70;;
17852;SDS011;9052;53.494;14.376;2023-07-29T04:15:07;18.93;;;13.87;;
17852;SDS011;9052;53.494;14.376;2023-07-29T04:17:34;17.73;;;13.30;;
17852;SDS011;9052;53.494;14.376;2023-07-29T04:20:01;18.00;;;12.73;;
17852;SDS011;9052;53.494;14.376;2023-07-29T04:22:29;15.87;;;13.53;;
17852;SDS011;9052;53.494;14.376;2023-07-29T04:24:55;22.40;;;13.83;;
17852;SDS011;9052;53.494;14.376;2023-07-29T04:27:22;16.60;;;12.67;;
17852;SDS011;9052;53.494;14.376;2023-07-29T04:29:49;18.57;;;15.60;;
17852;SDS011;9052;53.494;14.376;2023-07-29T04:32:17;22.60;;;15.07;;
17852;SDS011;9052;53.494;14.376;2023-07-29T04:34:44;19.83;;;14.47;;
17852;SDS011;9052;53.494;14.376;2023-07-29T04:37:11;15.80;;;13.80;;
17852;SDS011;9052;53.494;14.376;2023-07-29T04:39:38;16.73;;;13.50;;
17852;SDS011;9052;53.494;14.376;2023-07-29T04:42:05;25.90;;;13.33;;
17852;SDS011;9052;53.494;14.376;2023-07-29T04:44:35;15.30;;;13.20;;
17852;SDS011;9052;53.494;14.376;2023-07-29T04:47:02;14.30;;;11.73;;
17852;SDS011;9052;53.494;14.376;2023-07-29T04:49:30;16.17;;;12.93;;
17852;SDS011;9052;53.494;14.376;2023-07-29T04:51:57;20.33;;;14.10;;
17852;SDS011;9052;53.494;14.376;2023-07-29T04:54:24;15.33;;;13.10;;
17852;SDS011;9052;53.494;14.376;2023-07-29T04:56:51;20.07;;;12.20;;
17852;SDS011;9052;53.494;14.376;2023-07-29T04:59:17;12.57;;;11.23;;
17852;SDS011;9052;53.494;14.376;2023-07-29T05:01:44;18.73;;;13.53;;
17852;SDS011;9052;53.494;14.376;2023-07-29T05:04:12;17.07;;;13.17;;
17852;SDS011;9052;53.494;14.376;2023-07-29T05:06:40;20.20;;;13.17;;
17852;SDS011;9052;53.494;14.376;2023-07-29T05:09:13;18.73;;;13.77;;
17852;SDS011;9052;53.494;14.376;2023-07-29T05:11:41;17.83;;;13.57;;
17852;SDS011;9052;53.494;14.376;2023-07-29T05:14:08;21.00;;;18.20;;
17852;SDS011;9052;53.494;14.376;2023-07-29T05:16:35;24.03;;;16.17;;
17852;SDS011;9052;53.494;14.376;2023-07-29T05:19:02;19.50;;;16.07;;
17852;SDS011;9052;53.494;14.376;2023-07-29T05:21:29;15.70;;;14.10;;
17852;SDS011;9052;53.494;14.376;2023-07-29T05:23:58;21.10;;;14.47;;
17852;SDS011;9052;53.494;14.376;2023-07-29T05:26:25;15.20;;;13.80;;
17852;SDS011;9052;53.494;14.376;2023-07-29T05:28:52;16.40;;;14.27;;
17852;SDS011;9052;53.494;14.376;2023-07-29T05:31:18;13.97;;;12.57;;
17852;SDS011;9052;53.494;14.376;2023-07-29T05:33:45;18.50;;;14.27;;
17852;SDS011;9052;53.494;14.376;2023-07-29T05:36:13;15.33;;;13.40;;
17852;SDS011;9052;53.494;14.376;2023-07-29T05:38:42;14.87;;;13.33;;
17852;SDS011;9052;53.494;14.376;2023-07-29T05:41:11;16.10;;;13.60;;
17852;SDS011;9052;53.494;14.376;2023-07-29T05:43:38;18.10;;;14.13;;
17852;SDS011;9052;53.494;14.376;2023-07-29T05:46:05;15.93;;;13.43;;
17852;SDS011;9052;53.494;14.376;2023-07-29T05:48:32;18.83;;;14.23;;
17852;SDS011;9052;53.494;14.376;2023-07-29T05:50:59;14.90;;;12.63;;
17852;SDS011;9052;53.494;14.376;2023-07-29T05:53:26;15.67;;;12.80;;
17852;SDS011;9052;53.494;14.376;2023-07-29T05:55:52;19.10;;;13.43;;
17852;SDS011;9052;53.494;14.376;2023-07-29T05:58:21;15.03;;;12.67;;
17852;SDS011;9052;53.494;14.376;2023-07-29T06:00:48;17.80;;;13.27;;
17852;SDS011;9052;53.494;14.376;2023-07-29T06:03:14;13.40;;;12.00;;
17852;SDS011;9052;53.494;14.376;2023-07-29T06:05:41;14.90;;;12.47;;
17852;SDS011;9052;53.494;14.376;2023-07-29T06:08:08;13.93;;;12.27;;
17852;SDS011;9052;53.494;14.376;2023-07-29T06:10:35;17.37;;;11.90;;
17852;SDS011;9052;53.494;14.376;2023-07-29T06:13:03;11.97;;;10.40;;
17852;SDS011;9052;53.494;14.376;2023-07-29T06:15:31;19.93;;;12.73;;
17852;SDS011;9052;53.494;14.376;2023-07-29T06:17:58;18.77;;;13.33;;
17852;SDS011;9052;53.494;14.376;2023-07-29T06:20:25;13.40;;;10.73;;
17852;SDS011;9052;53.494;14.376;2023-07-29T06:22:52;12.70;;;10.50;;
17852;SDS011;9052;53.494;14.376;2023-07-29T06:25:19;13.00;;;10.87;;
17852;SDS011;9052;53.494;14.376;2023-07-29T06:27:47;17.63;;;11.13;;
17852;SDS011;9052;53.494;14.376;2023-07-29T06:30:14;11.57;;;10.37;;
17852;SDS011;9052;53.494;14.376;2023-07-29T06:32:42;12.83;;;11.53;;
17852;SDS011;9052;53.494;14.376;2023-07-29T06:35:09;17.70;;;11.53;;
17852;SDS011;9052;53.494;14.376;2023-07-29T06:37:36;14.63;;;10.60;;
17852;SDS011;9052;53.494;14.376;2023-07-29T06:40:04;13.40;;;11.13;;
17852;SDS011;9052;53.494;14.376;2023-07-29T06:42:31;12.70;;;11.50;;
17852;SDS011;9052;53.494;14.376;2023-07-29T06:45:02;13.67;;;12.37;;
17852;SDS011;9052;53.494;14.376;2023-07-29T06:47:33;20.13;;;11.27;;
17852;SDS011;9052;53.494;14.376;2023-07-29T06:50:01;12.43;;;11.10;;
17852;SDS011;9052;53.494;14.376;2023-07-29T06:52:29;13.83;;;11.50;;
17852;SDS011;9052;53.494;14.376;2023-07-29T06:54:56;11.37;;;9.20;;
17852;SDS011;9052;53.494;14.376;2023-07-29T06:57:23;9.67;;;8.87;;
17852;SDS011;9052;53.494;14.376;2023-07-29T06:59:50;8.67;;;7.87;;
17852;SDS011;9052;53.494;14.376;2023-07-29T07:02:17;8.90;;;7.57;;
17852;SDS011;9052;53.494;14.376;2023-07-29T07:04:44;9.83;;;7.00;;
17852;SDS011;9052;53.494;14.376;2023-07-29T07:07:12;10.07;;;6.40;;
17852;SDS011;9052;53.494;14.376;2023-07-29T07:09:39;7.27;;;6.67;;
17852;SDS011;9052;53.494;14.376;2023-07-29T07:12:06;13.43;;;6.57;;
17852;SDS011;9052;53.494;14.376;2023-07-29T07:14:34;9.57;;;6.77;;
17852;SDS011;9052;53.494;14.376;2023-07-29T07:17:00;6.60;;;6.00;;
17852;SDS011;9052;53.494;14.376;2023-07-29T07:19:27;7.73;;;5.63;;
17852;SDS011;9052;53.494;14.376;2023-07-29T07:21:54;5.40;;;5.00;;
17852;SDS011;9052;53.494;14.376;2023-07-29T07:24:22;5.00;;;4.60;;
17852;SDS011;9052;53.494;14.376;2023-07-29T07:26:49;5.93;;;5.50;;
17852;SDS011;9052;53.494;14.376;2023-07-29T07:29:16;11.43;;;5.40;;
17852;SDS011;9052;53.494;14.376;2023-07-29T07:31:46;5.93;;;5.53;;
17852;SDS011;9052;53.494;14.376;2023-07-29T07:34:16;8.80;;;5.53;;
17852;SDS011;9052;53.494;14.376;2023-07-29T07:36:43;6.23;;;5.10;;
17852;SDS011;9052;53.494;14.376;2023-07-29T07:39:10;5.83;;;5.33;;
17852;SDS011;9052;53.494;14.376;2023-07-29T07:41:38;5.87;;;5.37;;
17852;SDS011;9052;53.494;14.376;2023-07-29T07:44:05;5.00;;;4.63;;
17852;SDS011;9052;53.494;14.376;2023-07-29T07:46:32;7.27;;;4.50;;
17852;SDS011;9052;53.494;14.376;2023-07-29T07:48:59;4.10;;;3.80;;
17852;SDS011;9052;53.494;14.376;2023-07-29T07:51:26;3.90;;;3.60;;
17852;SDS011;9052;53.494;14.376;2023-07-29T07:53:53;4.07;;;3.87;;
17852;SDS011;9052;53.494;14.376;2023-07-29T07:56:20;4.20;;;3.80;;
17852;SDS011;9052;53.494;14.376;2023-07-29T07:58:48;4.03;;;3.67;;
17852;SDS011;9052;53.494;14.376;2023-07-29T08:01:15;3.73;;;3.23;;
17852;SDS011;9052;53.494;14.376;2023-07-29T08:03:42;4.17;;;3.87;;
17852;SDS011;9052;53.494;14.376;2023-07-29T08:06:09;3.33;;;3.13;;
17852;SDS011;9052;53.494;14.376;2023-07-29T08:08:36;3.30;;;3.10;;
17852;SDS011;9052;53.494;14.376;2023-07-29T08:11:03;6.23;;;3.17;;
17852;SDS011;9052;53.494;14.376;2023-07-29T08:13:30;3.20;;;3.00;;
17852;SDS011;9052;53.494;14.376;2023-07-29T08:15:58;2.73;;;2.63;;
17852;SDS011;9052;53.494;14.376;2023-07-29T08:18:25;3.07;;;2.57;;
17852;SDS011;9052;53.494;14.376;2023-07-29T08:20:52;2.80;;;2.60;;
17852;SDS011;9052;53.494;14.376;2023-07-29T08:23:20;2.70;;;2.50;;
17852;SDS011;9052;53.494;14.376;2023-07-29T08:25:51;2.27;;;2.17;;
17852;SDS011;9052;53.494;14.376;2023-07-29T08:28:19;3.30;;;2.37;;
17852;SDS011;9052;53.494;14.376;2023-07-29T08:30:46;4.10;;;1.90;;
17852;SDS011;9052;53.494;14.376;2023-07-29T08:33:14;2.70;;;2.60;;
17852;SDS011;9052;53.494;14.376;2023-07-29T08:35:41;2.40;;;2.30;;
17852;SDS011;9052;53.494;14.376;2023-07-29T08:38:08;5.33;;;2.60;;
17852;SDS011;9052;53.494;14.376;2023-07-29T08:40:35;2.27;;;2.00;;
17852;SDS011;9052;53.494;14.376;2023-07-29T08:43:04;2.47;;;2.27;;
17852;SDS011;9052;53.494;14.376;2023-07-29T08:45:32;4.37;;;2.40;;
17852;SDS011;9052;53.494;14.376;2023-07-29T08:48:02;2.23;;;2.03;;
17852;SDS011;9052;53.494;14.376;2023-07-29T08:50:31;2.00;;;1.90;;
17852;SDS011;9052;53.494;14.376;2023-07-29T08:52:59;1.90;;;1.80;;
17852;SDS011;9052;53.494;14.376;2023-07-29T08:55:28;2.13;;;2.00;;
17852;SDS011;9052;53.494;14.376;2023-07-29T08:57:55;2.47;;;1.90;;
17852;SDS011;9052;53.494;14.376;2023-07-29T09:00:23;2.00;;;1.90;;
17852;SDS011;9052;53.494;14.376;2023-07-29T09:02:50;2.87;;;2.00;;
17852;SDS011;9052;53.494;14.376;2023-07-29T09:05:17;7.63;;;2.47;;
17852;SDS011;9052;53.494;14.376;2023-07-29T09:07:46;1.80;;;1.70;;
17852;SDS011;9052;53.494;14.376;2023-07-29T09:10:13;3.03;;;2.10;;
17852;SDS011;9052;53.494;14.376;2023-07-29T09:12:40;2.00;;;1.90;;
17852;SDS011;9052;53.494;14.376;2023-07-29T09:15:08;3.27;;;1.87;;
17852;SDS011;9052;53.494;14.376;2023-07-29T09:17:35;4.80;;;2.10;;
17852;SDS011;9052;53.494;14.376;2023-07-29T09:20:02;3.60;;;1.70;;
17852;SDS011;9052;53.494;14.376;2023-07-29T09:22:30;2.23;;;1.90;;
17852;SDS011;9052;53.494;14.376;2023-07-29T09:24:58;5.70;;;2.37;;
17852;SDS011;9052;53.494;14.376;2023-07-29T09:27:25;2.17;;;2.07;;
17852;SDS011;9052;53.494;14.376;2023-07-29T09:29:53;1.73;;;1.63;;
17852;SDS011;9052;53.494;14.376;2023-07-29T09:32:21;1.90;;;1.80;;
17852;SDS011;9052;53.494;14.376;2023-07-29T09:34:49;3.00;;;1.90;;
17852;SDS011;9052;53.494;14.376;2023-07-29T09:37:16;2.23;;;1.93;;
17852;SDS011;9052;53.494;14.376;2023-07-29T09:39:44;7.70;;;2.00;;
17852;SDS011;9052;53.494;14.376;2023-07-29T09:42:17;2.20;;;2.10;;
17852;SDS011;9052;53.494;14.376;2023-07-29T09:44:45;1.73;;;1.63;;
17852;SDS011;9052;53.494;14.376;2023-07-29T09:47:18;1.87;;;1.77;;
17852;SDS011;9052;53.494;14.376;2023-07-29T09:49:46;6.03;;;1.80;;
17852;SDS011;9052;53.494;14.376;2023-07-29T09:52:14;12.80;;;1.90;;
17852;SDS011;9052;53.494;14.376;2023-07-29T09:54:42;1.77;;;1.67;;
17852;SDS011;9052;53.494;14.376;2023-07-29T09:57:09;3.00;;;1.57;;
17852;SDS011;9052;53.494;14.376;2023-07-29T09:59:38;2.07;;;1.47;;
17852;SDS011;9052;53.494;14.376;2023-07-29T10:02:05;3.77;;;1.80;;
17852;SDS011;9052;53.494;14.376;2023-07-29T10:04:37;2.37;;;2.10;;
17852;SDS011;9052;53.494;14.376;2023-07-29T10:07:04;2.33;;;2.10;;
17852;SDS011;9052;53.494;14.376;2023-07-29T10:09:32;2.40;;;2.20;;
17852;SDS011;9052;53.494;14.376;2023-07-29T10:12:00;1.80;;;1.70;;
17852;SDS011;9052;53.494;14.376;2023-07-29T10:14:27;2.30;;;2.07;;
17852;SDS011;9052;53.494;14.376;2023-07-29T10:16:56;2.33;;;1.77;;
17852;SDS011;9052;53.494;14.376;2023-07-29T10:19:23;2.37;;;2.17;;
17852;SDS011;9052;53.494;14.376;2023-07-29T10:21:51;2.70;;;2.10;;
17852;SDS011;9052;53.494;14.376;2023-07-29T10:24:19;3.70;;;2.10;;
17852;SDS011;9052;53.494;14.376;2023-07-29T10:26:53;3.20;;;2.00;;
17852;SDS011;9052;53.494;14.376;2023-07-29T10:29:24;7.23;;;2.03;;
17852;SDS011;9052;53.494;14.376;2023-07-29T10:31:51;2.60;;;2.40;;
17852;SDS011;9052;53.494;14.376;2023-07-29T10:34:20;3.07;;;2.50;;
17852;SDS011;9052;53.494;14.376;2023-07-29T10:36:49;3.80;;;1.90;;
17852;SDS011;9052;53.494;14.376;2023-07-29T10:39:16;2.10;;;2.00;;
17852;SDS011;9052;53.494;14.376;2023-07-29T10:41:56;2.30;;;2.10;;
17852;SDS011;9052;53.494;14.376;2023-07-29T10:47:19;2.23;;;2.03;;
17852;SDS011;9052;53.494;14.376;2023-07-29T10:49:49;3.20;;;2.77;;
17852;SDS011;9052;53.494;14.376;2023-07-29T10:52:27;2.40;;;2.27;;
17852;SDS011;9052;53.494;14.376;2023-07-29T10:54:55;2.60;;;2.50;;
17852;SDS011;9052;53.494;14.376;2023-07-29T10:57:30;3.07;;;2.90;;
17852;SDS011;9052;53.494;14.376;2023-07-29T10:59:57;2.50;;;2.30;;
17852;SDS011;9052;53.494;14.376;2023-07-29T11:02:28;4.27;;;3.57;;
17852;SDS011;9052;53.494;14.376;2023-07-29T11:04:57;11.57;;;5.07;;
17852;SDS011;9052;53.494;14.376;2023-07-29T11:07:25;19.53;;;6.53;;
17852;SDS011;9052;53.494;14.376;2023-07-29T11:09:54;8.90;;;6.57;;
17852;SDS011;9052;53.494;14.376;2023-07-29T11:15:18;21.47;;;7.87;;
17852;SDS011;9052;53.494;14.376;2023-07-29T11:17:47;36.77;;;8.30;;
17852;SDS011;9052;53.494;14.376;2023-07-29T11:20:17;12.30;;;8.83;;
17852;SDS011;9052;53.494;14.376;2023-07-29T11:22:44;18.50;;;9.23;;
17852;SDS011;9052;53.494;14.376;2023-07-29T11:25:12;17.87;;;9.23;;
17852;SDS011;9052;53.494;14.376;2023-07-29T11:27:40;25.33;;;8.80;;
17852;SDS011;9052;53.494;14.376;2023-07-29T11:30:07;13.00;;;8.30;;
17852;SDS011;9052;53.494;14.376;2023-07-29T11:32:35;17.43;;;10.20;;
17852;SDS011;9052;53.494;14.376;2023-07-29T11:35:04;19.30;;;9.87;;
17852;SDS011;9052;53.494;14.376;2023-07-29T11:37:34;15.00;;;9.60;;
17852;SDS011;9052;53.494;14.376;2023-07-29T11:40:01;14.03;;;8.10;;
17852;SDS011;9052;53.494;14.376;2023-07-29T11:42:31;13.40;;;8.30;;
17852;SDS011;9052;53.494;14.376;2023-07-29T11:44:58;20.93;;;7.53;;
17852;SDS011;9052;53.494;14.376;2023-07-29T11:47:25;14.20;;;6.63;;
17852;SDS011;9052;53.494;14.376;2023-07-29T11:49:52;10.40;;;7.67;;
17852;SDS011;9052;53.494;14.376;2023-07-29T11:52:19;24.43;;;7.40;;
17852;SDS011;9052;53.494;14.376;2023-07-29T11:54:49;16.50;;;5.57;;
17852;SDS011;9052;53.494;14.376;2023-07-29T11:57:16;15.70;;;5.97;;
17852;SDS011;9052;53.494;14.376;2023-07-29T11:59:44;8.37;;;6.40;;
17852;SDS011;9052;53.494;14.376;2023-07-29T12:02:12;34.10;;;7.57;;
17852;SDS011;9052;53.494;14.376;2023-07-29T12:04:40;24.67;;;9.90;;
17852;SDS011;9052;53.494;14.376;2023-07-29T12:07:07;26.10;;;8.00;;
17852;SDS011;9052;53.494;14.376;2023-07-29T12:09:34;42.00;;;7.70;;
17852;SDS011;9052;53.494;14.376;2023-07-29T12:12:03;43.00;;;8.57;;
17852;SDS011;9052;53.494;14.376;2023-07-29T12:14:31;80.37;;;9.47;;
17852;SDS011;9052;53.494;14.376;2023-07-29T12:17:00;27.77;;;8.20;;
17852;SDS011;9052;53.494;14.376;2023-07-29T12:19:31;24.47;;;9.47;;
17852;SDS011;9052;53.494;14.376;2023-07-29T12:21:58;13.63;;;8.60;;
17852;SDS011;9052;53.494;14.376;2023-07-29T12:24:26;15.30;;;8.03;;
17852;SDS011;9052;53.494;14.376;2023-07-29T12:26:53;14.07;;;7.73;;
17852;SDS011;9052;53.494;14.376;2023-07-29T12:29:21;17.37;;;8.37;;
17852;SDS011;9052;53.494;14.376;2023-07-29T12:31:49;15.43;;;9.40;;
17852;SDS011;9052;53.494;14.376;2023-07-29T12:34:22;20.40;;;10.43;;
17852;SDS011;9052;53.494;14.376;2023-07-29T12:36:52;19.30;;;9.20;;
17852;SDS011;9052;53.494;14.376;2023-07-29T12:39:22;8.80;;;8.10;;
17852;SDS011;9052;53.494;14.376;2023-07-29T12:41:50;17.37;;;8.93;;
17852;SDS011;9052;53.494;14.376;2023-07-29T12:44:18;17.63;;;10.07;;
17852;SDS011;9052;53.494;14.376;2023-07-29T12:46:46;19.80;;;9.27;;
17852;SDS011;9052;53.494;14.376;2023-07-29T12:49:13;10.33;;;7.40;;
17852;SDS011;9052;53.494;14.376;2023-07-29T12:51:43;12.70;;;8.40;;
17852;SDS011;9052;53.494;14.376;2023-07-29T12:54:10;9.73;;;7.87;;
17852;SDS011;9052;53.494;14.376;2023-07-29T12:56:37;9.93;;;7.00;;
17852;SDS011;9052;53.494;14.376;2023-07-29T12:59:04;13.27;;;8.10;;
17852;SDS011;9052;53.494;14.376;2023-07-29T13:01:31;14.67;;;8.67;;
17852;SDS011;9052;53.494;14.376;2023-07-29T13:04:00;12.53;;;7.30;;
17852;SDS011;9052;53.494;14.376;2023-07-29T13:06:26;12.10;;;7.47;;
17852;SDS011;9052;53.494;14.376;2023-07-29T13:08:53;17.07;;;8.53;;
17852;SDS011;9052;53.494;14.376;2023-07-29T13:11:20;18.87;;;8.53;;
17852;SDS011;9052;53.494;14.376;2023-07-29T13:13:47;12.07;;;7.70;;
17852;SDS011;9052;53.494;14.376;2023-07-29T13:16:14;12.50;;;7.53;;
17852;SDS011;9052;53.494;14.376;2023-07-29T13:18:42;13.63;;;7.50;;
17852;SDS011;9052;53.494;14.376;2023-07-29T13:21:11;21.57;;;9.50;;
17852;SDS011;9052;53.494;14.376;2023-07-29T13:23:38;16.50;;;7.93;;
17852;SDS011;9052;53.494;14.376;2023-07-29T13:26:05;10.97;;;7.00;;
17852;SDS011;9052;53.494;14.376;2023-07-29T13:28:32;21.70;;;8.50;;
17852;SDS011;9052;53.494;14.376;2023-07-29T13:30:59;18.30;;;8.43;;
17852;SDS011;9052;53.494;14.376;2023-07-29T13:33:26;23.07;;;9.07;;
17852;SDS011;9052;53.494;14.376;2023-07-29T13:35:53;19.40;;;8.47;;
17852;SDS011;9052;53.494;14.376;2023-07-29T13:38:21;21.60;;;8.70;;
17852;SDS011;9052;53.494;14.376;2023-07-29T13:40:48;11.00;;;7.77;;
17852;SDS011;9052;53.494;14.376;2023-07-29T13:43:16;15.93;;;7.53;;
17852;SDS011;9052;53.494;14.376;2023-07-29T13:45:43;14.93;;;7.63;;
17852;SDS011;9052;53.494;14.376;2023-07-29T13:48:11;13.73;;;6.77;;
17852;SDS011;9052;53.494;14.376;2023-07-29T13:50:38;8.30;;;6.70;;
17852;SDS011;9052;53.494;14.376;2023-07-29T13:53:04;17.60;;;8.20;;
17852;SDS011;9052;53.494;14.376;2023-07-29T13:55:33;12.40;;;7.23;;
17852;SDS011;9052;53.494;14.376;2023-07-29T13:58:00;15.47;;;8.00;;
17852;SDS011;9052;53.494;14.376;2023-07-29T14:00:27;19.00;;;7.87;;
17852;SDS011;9052;53.494;14.376;2023-07-29T14:02:54;9.83;;;8.50;;
17852;SDS011;9052;53.494;14.376;2023-07-29T14:05:21;12.80;;;8.20;;
17852;SDS011;9052;53.494;14.376;2023-07-29T14:07:48;13.73;;;8.70;;
17852;SDS011;9052;53.494;14.376;2023-07-29T14:10:15;25.50;;;10.70;;
17852;SDS011;9052;53.494;14.376;2023-07-29T14:12:44;24.90;;;9.37;;
17852;SDS011;9052;53.494;14.376;2023-07-29T14:15:11;15.43;;;9.00;;
17852;SDS011;9052;53.494;14.376;2023-07-29T14:17:38;18.27;;;10.23;;
17852;SDS011;9052;53.494;14.376;2023-07-29T14:20:06;16.13;;;9.70;;
17852;SDS011;9052;53.494;14.376;2023-07-29T14:22:33;12.10;;;8.97;;
17852;SDS011;9052;53.494;14.376;2023-07-29T14:25:00;17.47;;;9.30;;
17852;SDS011;9052;53.494;14.376;2023-07-29T14:27:27;16.10;;;10.37;;
17852;SDS011;9052;53.494;14.376;2023-07-29T14:29:56;27.27;;;11.43;;
17852;SDS011;9052;53.494;14.376;2023-07-29T14:32:23;36.83;;;11.70;;
17852;SDS011;9052;53.494;14.376;2023-07-29T14:34:50;17.87;;;10.40;;
17852;SDS011;9052;53.494;14.376;2023-07-29T14:37:17;20.13;;;11.37;;
17852;SDS011;9052;53.494;14.376;2023-07-29T14:39:44;14.63;;;10.20;;
17852;SDS011;9052;53.494;14.376;2023-07-29T14:42:11;12.47;;;9.60;;
17852;SDS011;9052;53.494;14.376;2023-07-29T14:44:40;10.20;;;7.67;;